Time;durP1;ratioP1;P1;durP2;ratioP2;P2;SDS_P1;SDS_P2;PMS_P1;PMS_P2;Temp;Humidity;BMP_temperature;BMP_pressure;BME280_temperature;BME280_humidity;BME280_pressure;Samples;Min_cycle;Max_cycle;Signal;HPM_P1;HPM_P2
2022/06/12 00:00:12;;;;;;;;;;;;;;;22.05;34.21;97214.00;4934847;29;1849;-75
2022/06/12 00:02:38;;;;;;;;;;;;;;;21.79;34.09;97228.38;4903547;29;959;-74
2022/06/12 00:05:03;;;;;;;;;;;;;;;21.81;33.79;97225.88;4897887;29;1300;-75
2022/06/12 00:07:29;;;;;;;;;;;;;;;21.81;33.74;97231.56;4898232;29;1989;-75
2022/06/12 00:09:54;;;;;;;;;;;;;;;21.90;33.78;97218.66;4898141;29;944;-75
2022/06/12 00:12:19;;;;;;;;;;;;;;;21.78;34.12;97228.84;4868429;29;1069;-75
2022/06/12 00:14:45;;;;;;;;;;;;;;;21.87;33.38;97222.44;4859752;29;2097;-75
2022/06/12 00:17:10;;;;;;;;;;;;;;;21.83;33.73;97233.91;4860514;29;1629;-75
2022/06/12 00:19:36;;;;;;;;;;;;;;;21.61;33.89;97239.63;4860620;29;1067;-75
2022/06/12 00:22:01;;;;;;;;;;;;;;;21.75;33.45;97222.06;4860818;29;997;-75
2022/06/12 00:24:27;;;;;;;;;;;;;;;21.65;33.44;97240.25;4873950;29;936;-75
2022/06/12 00:26:53;;;;;;;;;;;;;;;21.69;33.59;97237.28;4864012;29;1919;-75
2022/06/12 00:29:23;;;;;;;;;;;;;;;21.60;33.59;97232.34;4887415;29;999;-75
2022/06/12 00:31:52;;;;;;;;;;;;;;;21.65;33.36;97234.59;4896953;29;2128;-75
2022/06/12 00:34:18;;;;;;;;;;;;;;;21.59;33.52;97233.63;4879169;29;1291;-75
2022/06/12 00:36:44;;;;;;;;;;;;;;;21.55;33.41;97235.78;4878918;29;990;-75
2022/06/12 00:39:09;;;;;;;;;;;;;;;21.44;33.60;97226.94;4883336;29;1027;-75
2022/06/12 00:41:35;;;;;;;;;;;;;;;21.78;33.74;97229.63;4918882;29;1005;-75
2022/06/12 00:44:00;;;;;;;;;;;;;;;22.27;34.69;97228.09;4935749;29;983;-75
2022/06/12 00:46:36;;;;;;;;;;;;;;;22.24;35.08;97218.50;4966399;28;2168;-75
2022/06/12 00:49:06;;;;;;;;;;;;;;;22.53;35.07;97226.56;4954546;28;1918;-75
2022/06/12 00:51:32;;;;;;;;;;;;;;;22.40;35.70;97216.66;4946140;28;2006;-75
2022/06/12 00:53:58;;;;;;;;;;;;;;;21.83;35.70;97223.38;4935518;29;1048;-75
2022/06/12 00:56:24;;;;;;;;;;;;;;;21.90;35.37;97215.84;4938984;29;960;-75
2022/06/12 00:58:51;;;;;;;;;;;;;;;21.84;35.01;97219.28;4896322;29;1136;-75
2022/06/12 01:01:35;;;;;;;;;;;;;;;21.94;34.63;97219.31;4880168;29;2110;-75
2022/06/12 01:06:46;;;;;;;;;;;;;;;21.73;34.51;97213.25;4901339;29;1130;-75
2022/06/12 01:09:12;;;;;;;;;;;;;;;21.19;33.95;97132.47;4901312;29;1935;-75
2022/06/12 01:11:39;;;;;;;;;;;;;;;21.70;34.15;97208.50;4882455;29;1142;-75
2022/06/12 01:14:05;;;;;;;;;;;;;;;21.82;33.52;97213.28;4900940;29;999;-75
2022/06/12 01:16:31;;;;;;;;;;;;;;;21.76;33.65;97220.81;4901021;29;1010;-75
2022/06/12 01:18:56;;;;;;;;;;;;;;;21.88;33.38;97221.19;4900672;29;2020;-75
2022/06/12 01:21:22;;;;;;;;;;;;;;;21.84;33.19;97207.94;4901313;29;1037;-75
2022/06/12 01:24:07;;;;;;;;;;;;;;;21.70;33.59;97208.50;4900891;29;1090;-75
2022/06/12 01:26:42;;;;;;;;;;;;;;;21.53;33.73;97207.16;4863864;29;1130;-75
2022/06/12 01:29:10;;;;;;;;;;;;;;;21.62;33.44;97206.44;4871255;29;1906;-75
2022/06/12 01:31:44;;;;;;;;;;;;;;;21.66;33.30;97207.88;4901370;29;1024;-75
2022/06/12 01:34:25;;;;;;;;;;;;;;;21.68;33.29;97205.34;4900517;29;1124;-75
2022/06/12 01:36:56;;;;;;;;;;;;;;;21.64;33.27;97198.25;4901184;29;988;-75
2022/06/12 01:39:24;;;;;;;;;;;;;;;21.56;33.55;97203.44;4901046;29;1361;-75
2022/06/12 01:42:03;;;;;;;;;;;;;;;21.63;33.26;97199.53;4904096;29;1025;-75
2022/06/12 01:44:40;;;;;;;;;;;;;;;21.67;32.99;97209.44;4929288;29;1105;-75
2022/06/12 01:47:05;;;;;;;;;;;;;;;21.64;33.18;97199.03;4941389;29;2014;-75
2022/06/12 01:49:39;;;;;;;;;;;;;;;21.84;32.79;97202.28;4957716;29;1000;-75
2022/06/12 01:52:22;;;;;;;;;;;;;;;21.73;32.83;97201.94;4942239;29;927;-75
2022/06/12 01:54:47;;;;;;;;;;;;;;;21.74;32.76;97202.72;4942143;29;1108;-75
2022/06/12 01:57:15;;;;;;;;;;;;;;;21.70;32.67;97202.06;4956345;28;2069;-75
2022/06/12 01:59:43;;;;;;;;;;;;;;;21.64;32.79;97196.22;4937899;29;2063;-75
2022/06/12 02:02:12;;;;;;;;;;;;;;;21.59;32.79;97191.16;4938110;29;2099;-75
2022/06/12 02:04:54;;;;;;;;;;;;;;;21.68;33.01;97188.38;5007061;28;2093;-74
2022/06/12 02:07:20;;;;;;;;;;;;;;;21.79;32.48;97182.28;4976074;28;1985;-75
2022/06/12 02:09:55;;;;;;;;;;;;;;;21.62;32.84;97180.97;4976664;28;1135;-75
2022/06/12 02:15:21;;;;;;;;;;;;;;;21.70;33.04;97163.19;4881760;29;1136;-75
2022/06/12 02:17:49;;;;;;;;;;;;;;;21.63;33.41;97157.06;4881336;29;1036;-75
2022/06/12 02:20:14;;;;;;;;;;;;;;;21.66;33.22;97151.25;4843564;29;1983;-75
2022/06/12 02:22:41;;;;;;;;;;;;;;;22.21;34.10;97154.25;4844338;29;969;-75
2022/06/12 02:25:12;;;;;;;;;;;;;;;22.38;34.87;97168.13;4843940;29;979;-75
2022/06/12 02:27:43;;;;;;;;;;;;;;;22.40;35.42;97162.78;4828698;29;1907;-75
2022/06/12 02:30:22;;;;;;;;;;;;;;;22.45;35.94;97170.69;4833659;29;1016;-75
2022/06/12 02:32:49;;;;;;;;;;;;;;;22.02;36.47;97161.09;4862400;29;960;-76
2022/06/12 02:35:15;;;;;;;;;;;;;;;21.94;35.82;97171.94;4843033;29;2107;-75
2022/06/12 02:37:46;;;;;;;;;;;;;;;21.99;35.40;97167.72;4846912;29;2281;-75
2022/06/12 02:40:18;;;;;;;;;;;;;;;21.77;35.26;97162.94;4824628;29;2113;-76
2022/06/12 02:42:44;;;;;;;;;;;;;;;21.68;35.28;97168.56;4800783;29;1068;-75
2022/06/12 02:45:17;;;;;;;;;;;;;;;21.79;34.59;97166.06;4825586;29;1087;-75
2022/06/12 02:47:43;;;;;;;;;;;;;;;21.71;34.49;97169.66;4840896;29;1978;-75
2022/06/12 02:50:09;;;;;;;;;;;;;;;21.81;34.24;97168.44;4825888;29;1108;-75
2022/06/12 02:52:37;;;;;;;;;;;;;;;21.75;34.02;97176.75;4854739;29;1070;-75
2022/06/12 02:55:05;;;;;;;;;;;;;;;21.70;33.90;97168.06;4861267;29;2111;-75
2022/06/12 02:57:34;;;;;;;;;;;;;;;21.53;34.50;97159.06;4866140;29;1211;-75
2022/06/12 03:00:06;;;;;;;;;;;;;;;21.66;34.08;97168.25;4880417;29;946;-75
2022/06/12 03:02:32;;;;;;;;;;;;;;;21.72;33.42;97171.25;4879300;29;2043;-75
2022/06/12 03:05:02;;;;;;;;;;;;;;;21.63;33.85;97169.16;4898790;29;988;-75
2022/06/12 03:07:28;;;;;;;;;;;;;;;21.77;33.25;97168.59;4899097;29;1986;-75
2022/06/12 03:09:54;;;;;;;;;;;;;;;21.65;33.31;97155.31;4924634;29;2047;-75
2022/06/12 03:12:19;;;;;;;;;;;;;;;21.59;33.89;97162.84;4936242;29;1784;-75
2022/06/12 03:14:45;;;;;;;;;;;;;;;21.61;33.58;97148.25;4899038;29;1143;-75
2022/06/12 03:17:10;;;;;;;;;;;;;;;21.72;33.18;97154.25;4898206;29;1067;-75
2022/06/12 03:19:42;;;;;;;;;;;;;;;21.88;32.96;97156.84;4898649;29;921;-75
2022/06/12 03:22:16;;;;;;;;;;;;;;;21.78;33.22;97146.72;4896759;29;963;-75
2022/06/12 03:24:42;;;;;;;;;;;;;;;21.84;32.90;97156.97;4898622;29;956;-75
2022/06/12 03:27:07;;;;;;;;;;;;;;;21.69;33.37;97163.69;4909722;29;2367;-75
2022/06/12 03:29:33;;;;;;;;;;;;;;;21.64;33.28;97169.94;4917577;29;998;-75
2022/06/12 03:32:18;;;;;;;;;;;;;;;21.74;33.08;97174.41;4917604;29;1043;-75
2022/06/12 03:34:47;;;;;;;;;;;;;;;21.75;33.02;97182.41;4920420;29;904;-76
2022/06/12 03:37:23;;;;;;;;;;;;;;;21.42;33.30;97187.00;4920859;29;963;-75
2022/06/12 03:40:00;;;;;;;;;;;;;;;21.79;32.67;97183.06;4938372;28;998;-75
2022/06/12 03:42:36;;;;;;;;;;;;;;;21.51;33.23;97185.00;4974328;28;1608;-75
2022/06/12 03:45:01;;;;;;;;;;;;;;;21.51;33.10;97184.22;4959328;28;950;-75
2022/06/12 03:47:32;;;;;;;;;;;;;;;21.57;33.14;97182.34;4974905;28;1983;-75
2022/06/12 03:50:10;;;;;;;;;;;;;;;21.56;33.23;97180.78;4917414;29;940;-75
2022/06/12 03:53:05;;;;;;;;;;;;;;;21.44;33.53;97182.44;4917199;29;1103;-75
2022/06/12 03:58:23;;;;;;;;;;;;;;;21.70;32.90;97194.34;4879412;29;1066;-75
2022/06/12 04:00:49;;;;;;;;;;;;;;;22.14;33.38;97202.72;4872544;29;2201;-75
2022/06/12 04:03:17;;;;;;;;;;;;;;;22.31;34.25;97195.53;4879574;29;1007;-75
2022/06/12 04:05:43;;;;;;;;;;;;;;;22.49;34.83;97206.13;4864275;29;1176;-76
2022/06/12 04:08:09;;;;;;;;;;;;;;;22.42;35.60;97205.63;4864173;29;1907;-76
2022/06/12 04:10:36;;;;;;;;;;;;;;;22.33;35.92;97193.03;4863876;29;1067;-76
2022/06/12 04:13:02;;;;;;;;;;;;;;;21.99;35.60;97201.72;4842372;29;1060;-76
2022/06/12 04:15:47;;;;;;;;;;;;;;;21.89;35.25;97206.56;4832217;29;1419;-76
2022/06/12 04:18:13;;;;;;;;;;;;;;;21.97;34.79;97196.53;4860614;29;982;-76
2022/06/12 04:20:38;;;;;;;;;;;;;;;21.93;34.29;97204.38;4823787;29;979;-76
2022/06/12 04:23:04;;;;;;;;;;;;;;;21.77;34.30;97208.25;4824135;29;1013;-76
2022/06/12 04:25:30;;;;;;;;;;;;;;;21.83;34.35;97214.88;4824064;29;1062;-76
2022/06/12 04:27:56;;;;;;;;;;;;;;;21.80;34.14;97212.97;4824366;29;1907;-76
2022/06/12 04:30:25;;;;;;;;;;;;;;;21.82;34.33;97210.47;4841826;29;1216;-77
2022/06/12 04:32:56;;;;;;;;;;;;;;;21.84;34.06;97207.94;4877902;29;1041;-77
2022/06/12 04:35:21;;;;;;;;;;;;;;;21.92;33.75;97213.34;4899924;29;981;-76
2022/06/12 04:37:47;;;;;;;;;;;;;;;21.69;33.86;97206.94;4916585;29;1007;-77
2022/06/12 04:40:16;;;;;;;;;;;;;;;21.67;33.62;97206.63;4916382;29;1070;-76
2022/06/12 04:42:42;;;;;;;;;;;;;;;21.76;33.49;97208.69;4917840;29;1380;-77
2022/06/12 04:45:08;;;;;;;;;;;;;;;21.90;33.06;97201.66;4954014;28;999;-77
2022/06/12 04:47:34;;;;;;;;;;;;;;;21.73;33.26;97201.94;4954855;28;2015;-77
2022/06/12 04:50:00;;;;;;;;;;;;;;;21.80;32.94;97189.50;4954511;28;1055;-77
2022/06/12 04:52:25;;;;;;;;;;;;;;;21.87;32.80;97182.78;4967871;28;1136;-76
2022/06/12 04:54:51;;;;;;;;;;;;;;;21.77;33.24;97179.13;4973977;28;1291;-77
2022/06/12 04:57:17;;;;;;;;;;;;;;;21.88;32.86;97184.38;4941261;28;1252;-77
2022/06/12 04:59:43;;;;;;;;;;;;;;;21.57;33.24;97182.34;4973743;28;1258;-77
2022/06/12 05:02:08;;;;;;;;;;;;;;;21.75;33.16;97187.28;5005579;28;1243;-77
2022/06/12 05:04:35;;;;;;;;;;;;;;;21.81;32.77;97194.72;5012646;28;1403;-76
2022/06/12 05:07:00;;;;;;;;;;;;;;;21.71;33.23;97212.13;5012450;28;1989;-78
2022/06/12 05:09:27;;;;;;;;;;;;;;;21.69;32.85;97195.59;5012332;28;1265;-77
2022/06/12 05:11:53;;;;;;;;;;;;;;;21.76;32.75;97206.66;5012613;28;1211;-76
2022/06/12 05:14:18;;;;;;;;;;;;;;;21.69;33.30;97195.59;4993654;28;1112;-77
2022/06/12 05:16:48;;;;;;;;;;;;;;;21.78;33.24;97181.50;5012762;28;1231;-77
2022/06/12 05:19:15;;;;;;;;;;;;;;;22.03;34.79;97176.88;4996140;28;1164;-77
2022/06/12 05:21:40;;;;;;;;;;;;;;;22.45;35.29;97179.19;5034697;28;1191;-77
2022/06/12 05:24:06;;;;;;;;;;;;;;;22.44;35.43;97188.94;5034474;28;1245;-76
2022/06/12 05:26:33;;;;;;;;;;;;;;;22.48;36.60;97186.72;5034394;28;1207;-77
2022/06/12 05:29:02;;;;;;;;;;;;;;;22.35;36.45;97196.16;5034633;28;1989;-77
2022/06/12 05:31:28;;;;;;;;;;;;;;;22.22;35.66;97189.81;5016443;28;1191;-77
2022/06/12 05:33:53;;;;;;;;;;;;;;;21.91;35.84;97184.19;5034598;28;1270;-77
2022/06/12 05:36:19;;;;;;;;;;;;;;;21.90;35.61;97181.84;5034358;28;1238;-76
2022/06/12 05:38:45;;;;;;;;;;;;;;;21.68;35.68;97182.72;4999505;28;1191;-77
2022/06/12 05:41:10;;;;;;;;;;;;;;;21.66;35.85;97181.59;5035498;28;1055;-77
2022/06/12 05:43:37;;;;;;;;;;;;;;;22.01;34.64;97188.63;4995906;28;1199;-77
2022/06/12 05:46:02;;;;;;;;;;;;;;;21.76;35.35;97189.69;4964009;28;1337;-78
2022/06/12 05:48:28;;;;;;;;;;;;;;;21.85;34.94;97191.75;4995922;28;1906;-78
2022/06/12 05:50:57;;;;;;;;;;;;;;;21.91;34.85;97197.56;4996409;28;1275;-77
2022/06/12 05:53:23;;;;;;;;;;;;;;;21.68;34.92;97199.69;4993859;28;1219;-77
2022/06/12 05:55:49;;;;;;;;;;;;;;;21.82;34.55;97210.47;4996166;28;1259;-77
2022/06/12 05:58:14;;;;;;;;;;;;;;;21.78;34.19;97158.84;5006145;28;1318;-78
2022/06/12 06:00:40;;;;;;;;;;;;;;;21.70;34.84;97193.56;4999714;28;969;-77
2022/06/12 06:03:05;;;;;;;;;;;;;;;21.95;34.08;97190.50;5015896;28;1047;-77
2022/06/12 06:05:31;;;;;;;;;;;;;;;21.97;33.71;97187.25;4999357;28;1028;-77
2022/06/12 06:07:56;;;;;;;;;;;;;;;21.96;33.82;97191.31;5015973;28;1906;-77
2022/06/12 06:10:23;;;;;;;;;;;;;;;21.97;34.00;97182.34;5015853;28;1037;-77
2022/06/12 06:12:48;;;;;;;;;;;;;;;21.74;34.41;97180.84;4976806;28;1039;-77
2022/06/12 06:15:14;;;;;;;;;;;;;;;21.84;33.90;97188.13;4991372;28;974;-77
2022/06/12 06:17:39;;;;;;;;;;;;;;;21.70;34.53;97202.84;4996374;28;969;-77
2022/06/12 06:20:05;;;;;;;;;;;;;;;21.87;34.16;97188.47;4996258;28;1108;-77
2022/06/12 06:22:31;;;;;;;;;;;;;;;21.92;34.01;97190.69;4963542;28;949;-77
2022/06/12 06:24:57;;;;;;;;;;;;;;;21.89;33.78;97197.28;4996110;28;1041;-77
2022/06/12 06:27:23;;;;;;;;;;;;;;;21.95;33.87;97186.91;4996071;28;1997;-77
2022/06/12 06:29:48;;;;;;;;;;;;;;;21.89;33.69;97198.06;4996185;28;916;-77
2022/06/12 06:32:13;;;;;;;;;;;;;;;21.78;34.21;97192.03;4963452;28;1010;-77
2022/06/12 06:34:39;;;;;;;;;;;;;;;21.77;33.96;97199.75;4995608;28;1076;-77
2022/06/12 06:37:05;;;;;;;;;;;;;;;21.89;33.87;97202.94;4995949;28;974;-77
2022/06/12 06:39:31;;;;;;;;;;;;;;;21.93;33.89;97214.91;4996082;28;927;-77
2022/06/12 06:41:56;;;;;;;;;;;;;;;21.67;34.06;97206.63;4995615;28;1080;-77
2022/06/12 06:47:06;;;;;;;;;;;;;;;21.82;33.66;97204.81;5057013;28;1930;-77
2022/06/12 06:49:31;;;;;;;;;;;;;;;21.69;33.89;97212.59;5057786;28;991;-77
2022/06/12 06:51:57;;;;;;;;;;;;;;;21.84;33.70;97212.81;5057428;28;927;-77
2022/06/12 06:54:22;;;;;;;;;;;;;;;22.00;33.22;97208.94;5057206;28;944;-77
2022/06/12 06:56:48;;;;;;;;;;;;;;;21.87;33.44;97217.56;5057075;28;957;-78
2022/06/12 06:59:13;;;;;;;;;;;;;;;21.67;33.50;97212.28;5056924;28;1271;-77
2022/06/12 07:01:39;;;;;;;;;;;;;;;21.64;33.84;97207.53;5057298;28;876;-78
2022/06/12 07:04:04;;;;;;;;;;;;;;;21.85;33.63;97212.34;5039728;28;902;-77
2022/06/12 07:06:30;;;;;;;;;;;;;;;21.73;33.97;97218.91;5057345;28;958;-77
2022/06/12 07:08:55;;;;;;;;;;;;;;;21.68;33.87;97216.69;5056998;28;1985;-76
2022/06/12 07:11:21;;;;;;;;;;;;;;;21.67;33.88;97220.00;5057301;28;912;-77
2022/06/12 07:13:47;;;;;;;;;;;;;;;21.82;33.13;97221.78;5056716;28;971;-77
2022/06/12 07:16:12;;;;;;;;;;;;;;;21.71;33.68;97218.59;5021324;28;1506;-78
2022/06/12 07:18:38;;;;;;;;;;;;;;;21.88;33.44;97226.84;5056478;28;937;-77
2022/06/12 07:21:03;;;;;;;;;;;;;;;21.81;33.42;97230.72;5056613;28;792;-77
2022/06/12 07:23:29;;;;;;;;;;;;;;;21.78;33.34;97226.81;5056620;28;990;-77
2022/06/12 07:25:56;;;;;;;;;;;;;;;21.77;33.35;97233.72;5056272;28;957;-77
2022/06/12 07:28:22;;;;;;;;;;;;;;;21.62;33.51;97241.19;5039126;28;1905;-77
2022/06/12 07:30:47;;;;;;;;;;;;;;;21.72;33.75;97251.31;5056171;28;942;-77
2022/06/12 07:33:13;;;;;;;;;;;;;;;21.67;33.77;97248.31;5056159;28;983;-77
2022/06/12 07:35:39;;;;;;;;;;;;;;;21.84;33.39;97253.25;5056315;28;891;-77
2022/06/12 07:38:04;;;;;;;;;;;;;;;21.78;33.75;97252.28;5056253;28;989;-77
2022/06/12 07:40:32;;;;;;;;;;;;;;;21.75;33.61;97249.59;5038564;28;1017;-77
2022/06/12 07:42:57;;;;;;;;;;;;;;;21.59;34.08;97248.56;5056261;28;1010;-77
2022/06/12 07:45:23;;;;;;;;;;;;;;;21.69;33.71;97249.41;5056094;28;935;-77
2022/06/12 07:47:48;;;;;;;;;;;;;;;21.87;33.41;97245.88;5056085;28;1909;-77
2022/06/12 07:50:15;;;;;;;;;;;;;;;21.66;33.98;97247.50;5056435;28;1045;-77
2022/06/12 07:52:41;;;;;;;;;;;;;;;21.77;33.43;97247.09;5056420;28;952;-77
2022/06/12 07:55:07;;;;;;;;;;;;;;;21.68;33.60;97250.66;5056161;28;911;-77
2022/06/12 07:57:32;;;;;;;;;;;;;;;21.69;33.65;97240.13;5056079;28;962;-77
2022/06/12 07:59:58;;;;;;;;;;;;;;;21.71;33.47;97258.25;5056040;28;939;-77
2022/06/12 08:02:23;;;;;;;;;;;;;;;21.80;33.12;97252.59;5056049;28;1023;-78
2022/06/12 08:04:49;;;;;;;;;;;;;;;21.78;33.17;97255.13;5013255;28;972;-77
2022/06/12 08:07:14;;;;;;;;;;;;;;;21.81;33.43;97259.88;5013774;28;1971;-77
2022/06/12 08:09:39;;;;;;;;;;;;;;;21.71;33.41;97260.25;5013545;28;937;-77
2022/06/12 08:12:05;;;;;;;;;;;;;;;21.69;33.51;97260.72;5014000;28;1021;-76
2022/06/12 08:14:31;;;;;;;;;;;;;;;21.70;33.49;97256.63;5013587;28;926;-77
2022/06/12 08:16:56;;;;;;;;;;;;;;;21.73;33.19;97264.22;5013485;28;1072;-76
2022/06/12 08:22:06;;;;;;;;;;;;;;;21.56;33.69;97265.69;5013809;28;1045;-77
2022/06/12 08:24:31;;;;;;;;;;;;;;;21.81;33.36;97268.38;4974691;28;968;-76
2022/06/12 08:26:57;;;;;;;;;;;;;;;21.69;33.59;97274.09;4974433;28;1036;-77
2022/06/12 08:29:22;;;;;;;;;;;;;;;21.76;33.14;97277.47;4974266;28;2120;-77
2022/06/12 08:31:49;;;;;;;;;;;;;;;21.76;33.12;97273.81;4974621;28;1084;-77
2022/06/12 08:34:25;;;;;;;;;;;;;;;21.76;33.41;97268.16;4974609;28;984;-77
2022/06/12 08:36:51;;;;;;;;;;;;;;;21.47;33.60;97274.13;4900124;29;942;-77
2022/06/12 08:39:17;;;;;;;;;;;;;;;21.72;33.37;97268.31;4897634;29;956;-77
2022/06/12 08:41:47;;;;;;;;;;;;;;;21.73;33.51;97275.53;4897962;29;1033;-76
2022/06/12 08:44:26;;;;;;;;;;;;;;;21.91;34.63;97279.72;4894668;29;1012;-77
2022/06/12 08:46:59;;;;;;;;;;;;;;;22.32;35.41;97270.78;4879150;29;947;-77
2022/06/12 08:49:27;;;;;;;;;;;;;;;22.53;36.00;97268.31;4878738;29;1907;-76
2022/06/12 08:51:55;;;;;;;;;;;;;;;22.47;37.00;97275.88;4887803;29;974;-76
2022/06/12 08:54:25;;;;;;;;;;;;;;;22.23;37.25;97273.59;4897869;29;959;-77
2022/06/12 08:56:52;;;;;;;;;;;;;;;21.98;37.24;97274.56;4920001;29;1043;-77
2022/06/12 08:59:35;;;;;;;;;;;;;;;22.00;36.55;97269.22;4935696;29;1131;-77
2022/06/12 09:02:03;;;;;;;;;;;;;;;21.88;36.24;97272.16;4935531;29;933;-77
2022/06/12 09:04:28;;;;;;;;;;;;;;;21.87;36.03;97267.75;4936002;29;1171;-77
2022/06/12 09:07:14;;;;;;;;;;;;;;;21.79;35.78;97268.03;4939620;28;1146;-77
2022/06/12 09:09:51;;;;;;;;;;;;;;;22.14;34.81;97267.13;4916770;29;1122;-76
2022/06/12 09:12:21;;;;;;;;;;;;;;;22.11;34.76;97266.00;4916605;29;1132;-76
2022/06/12 09:14:47;;;;;;;;;;;;;;;21.99;34.54;97261.97;4900839;29;1037;-77
2022/06/12 09:17:18;;;;;;;;;;;;;;;21.96;34.53;97250.78;4903450;29;1127;-77
2022/06/12 09:19:56;;;;;;;;;;;;;;;21.83;34.82;97265.84;4920235;29;1207;-77
2022/06/12 09:22:38;;;;;;;;;;;;;;;21.76;34.68;97268.16;4944554;29;971;-76
2022/06/12 09:25:13;;;;;;;;;;;;;;;21.67;34.71;97260.41;4919985;29;960;-77
2022/06/12 09:27:41;;;;;;;;;;;;;;;21.84;34.60;97263.81;4920112;29;1903;-77
2022/06/12 09:30:12;;;;;;;;;;;;;;;21.97;34.18;97258.06;4904677;29;998;-77
2022/06/12 09:32:43;;;;;;;;;;;;;;;21.96;34.20;97276.28;4920136;29;1145;-77
2022/06/12 09:35:14;;;;;;;;;;;;;;;21.99;33.85;97264.03;4904445;29;977;-77
2022/06/12 09:40:34;;;;;;;;;;;;;;;21.87;33.71;97273.41;4919754;29;966;-77
2022/06/12 09:43:01;;;;;;;;;;;;;;;21.86;33.90;97275.44;4901017;29;943;-76
2022/06/12 09:45:27;;;;;;;;;;;;;;;21.96;33.40;97270.63;4919380;29;1002;-77
2022/06/12 09:48:11;;;;;;;;;;;;;;;21.83;33.64;97262.22;4974522;28;1971;-77
2022/06/12 09:50:52;;;;;;;;;;;;;;;21.93;33.86;97274.38;4938393;29;983;-77
2022/06/12 09:53:17;;;;;;;;;;;;;;;21.76;34.02;97274.63;4938590;29;1009;-77
2022/06/12 09:55:51;;;;;;;;;;;;;;;22.03;33.22;97259.81;4945659;29;1549;-77
2022/06/12 09:58:23;;;;;;;;;;;;;;;21.93;33.59;97268.72;4941732;28;1071;-76
2022/06/12 10:00:58;;;;;;;;;;;;;;;22.05;33.09;97262.16;4957852;28;945;-76
2022/06/12 10:03:44;;;;;;;;;;;;;;;21.94;33.35;97258.97;4941369;29;946;-77
2022/06/12 10:09:09;;;;;;;;;;;;;;;21.83;33.78;97268.69;4906920;29;1875;-77
2022/06/12 10:11:36;;;;;;;;;;;;;;;21.94;33.64;97250.47;4869448;29;1148;-77
2022/06/12 10:14:03;;;;;;;;;;;;;;;21.95;33.18;97263.38;4862332;29;2135;-77
2022/06/12 10:16:40;;;;;;;;;;;;;;;21.92;33.45;97264.31;4862875;29;1680;-77
2022/06/12 10:19:16;;;;;;;;;;;;;;;21.98;33.29;97251.13;4862872;29;1038;-77
2022/06/12 10:21:42;;;;;;;;;;;;;;;21.90;33.41;97275.31;4909899;29;965;-77
2022/06/12 10:24:10;;;;;;;;;;;;;;;21.98;33.18;97280.25;4937990;29;1054;-77
2022/06/12 10:26:35;;;;;;;;;;;;;;;21.89;33.50;97270.91;4921916;29;1009;-77
2022/06/12 10:29:03;;;;;;;;;;;;;;;21.90;33.23;97267.59;4937878;29;1891;-77
2022/06/12 10:31:30;;;;;;;;;;;;;;;21.76;33.22;97274.63;4899793;29;1079;-77
2022/06/12 10:34:14;;;;;;;;;;;;;;;21.77;33.20;97264.88;4900083;29;1217;-77
2022/06/12 10:36:39;;;;;;;;;;;;;;;21.81;33.09;97265.53;4884698;29;1002;-77
2022/06/12 10:39:06;;;;;;;;;;;;;;;22.05;32.72;97262.16;4884201;29;1012;-76
2022/06/12 10:41:31;;;;;;;;;;;;;;;21.75;33.29;97264.53;4847600;29;1009;-77
2022/06/12 10:43:57;;;;;;;;;;;;;;;21.84;32.98;97266.63;4825598;29;1127;-77
2022/06/12 10:46:26;;;;;;;;;;;;;;;21.92;32.81;97270.00;4864117;29;978;-77
2022/06/12 10:49:15;;;;;;;;;;;;;;;22.04;32.55;97260.59;4880951;29;2004;-77
2022/06/12 10:51:40;;;;;;;;;;;;;;;21.83;32.96;97253.72;4825628;29;1070;-76
2022/06/12 10:54:17;;;;;;;;;;;;;;;21.87;33.14;97262.09;4825604;29;1014;-77
2022/06/12 10:57:01;;;;;;;;;;;;;;;21.91;32.84;97252.19;4825868;29;1022;-77
2022/06/12 10:59:29;;;;;;;;;;;;;;;21.82;33.12;97255.00;4807677;29;1027;-77
2022/06/12 11:02:07;;;;;;;;;;;;;;;21.96;32.64;97247.94;4817127;29;1038;-77
2022/06/12 11:04:41;;;;;;;;;;;;;;;21.89;32.63;97242.59;4862054;29;991;-77
2022/06/12 11:07:06;;;;;;;;;;;;;;;21.84;33.15;97244.75;4862371;29;1138;-77
2022/06/12 11:09:55;;;;;;;;;;;;;;;21.78;32.96;97229.63;4862158;29;1903;-77
2022/06/12 11:12:20;;;;;;;;;;;;;;;21.83;33.01;97234.69;4843637;29;1066;-77
2022/06/12 11:15:15;;;;;;;;;;;;;;;22.14;32.55;97230.28;4843627;29;1077;-76
2022/06/12 11:17:46;;;;;;;;;;;;;;;21.91;32.91;97240.06;4807072;29;1069;-77
2022/06/12 11:20:30;;;;;;;;;;;;;;;22.01;32.67;97239.63;4788792;29;1577;-77
2022/06/12 11:23:19;;;;;;;;;;;;;;;21.96;33.16;97236.63;4806949;29;1243;-77
2022/06/12 11:26:07;;;;;;;;;;;;;;;21.83;32.99;97229.03;4788815;29;1204;-76
2022/06/12 11:28:51;;;;;;;;;;;;;;;22.03;32.69;97230.69;4830550;29;1986;-77
2022/06/12 11:31:25;;;;;;;;;;;;;;;21.83;32.74;97234.69;4861798;29;1089;-76
2022/06/12 11:34:17;;;;;;;;;;;;;;;21.88;32.43;97229.69;4861655;29;959;-77
2022/06/12 11:36:53;;;;;;;;;;;;;;;21.85;32.76;97231.38;4859712;29;1057;-76
2022/06/12 11:39:21;;;;;;;;;;;;;;;21.92;32.64;97224.66;4860963;29;1064;-77
2022/06/12 11:41:53;;;;;;;;;;;;;;;21.95;32.42;97230.16;4861732;29;1509;-77
2022/06/12 11:44:21;;;;;;;;;;;;;;;21.76;32.95;97229.31;4861890;29;992;-77
2022/06/12 11:47:04;;;;;;;;;;;;;;;21.85;32.44;97226.50;4861783;29;1013;-77
2022/06/12 11:49:45;;;;;;;;;;;;;;;21.84;32.55;97219.28;4841196;29;1994;-77
2022/06/12 11:52:10;;;;;;;;;;;;;;;21.97;32.38;97221.22;4841137;29;1015;-76
2022/06/12 11:54:54;;;;;;;;;;;;;;;21.94;32.70;97210.81;4884860;29;1006;-77
2022/06/12 11:57:31;;;;;;;;;;;;;;;21.94;32.51;97205.16;4901239;29;1056;-76
2022/06/12 11:59:57;;;;;;;;;;;;;;;21.82;32.81;97204.00;4898522;29;984;-77
2022/06/12 12:02:28;;;;;;;;;;;;;;;21.91;32.65;97203.25;4911488;29;985;-76
2022/06/12 12:04:54;;;;;;;;;;;;;;;21.77;32.87;97202.56;4906701;29;1021;-77
2022/06/12 12:07:21;;;;;;;;;;;;;;;21.90;32.37;97201.66;4936471;29;1978;-76
2022/06/12 12:09:56;;;;;;;;;;;;;;;21.98;32.32;97194.47;4936641;29;1034;-76
2022/06/12 12:12:23;;;;;;;;;;;;;;;21.83;32.58;97212.03;4936260;29;926;-77
2022/06/12 12:14:49;;;;;;;;;;;;;;;21.83;32.50;97206.38;4917283;29;1071;-77
2022/06/12 12:17:25;;;;;;;;;;;;;;;21.88;32.48;97201.34;4917582;29;1011;-77
2022/06/12 12:19:57;;;;;;;;;;;;;;;21.85;32.50;97206.69;4898273;29;907;-77
2022/06/12 12:22:38;;;;;;;;;;;;;;;21.94;32.32;97191.00;4883023;29;1105;-77
2022/06/12 12:25:17;;;;;;;;;;;;;;;21.69;32.76;97195.59;4898116;29;977;-77
2022/06/12 12:27:43;;;;;;;;;;;;;;;21.81;32.58;97194.72;4882515;29;1915;-77
2022/06/12 12:30:18;;;;;;;;;;;;;;;21.83;32.64;97217.69;4882358;29;1005;-76
2022/06/12 12:32:44;;;;;;;;;;;;;;;21.87;32.38;97211.91;4898457;29;978;-76
2022/06/12 12:41:11;;;;;;;;;;;;;;;21.85;32.76;97212.34;4897911;29;1086;-77
2022/06/12 12:43:22;;;;;;;;;;;;;;;21.80;32.22;97198.78;4877739;29;1002;-77
2022/06/12 12:45:57;;;;;;;;;;;;;;;21.75;32.50;97195.78;4907078;29;960;-77
2022/06/12 12:48:23;;;;;;;;;;;;;;;21.70;32.34;97202.84;4916498;29;1972;-77
2022/06/12 12:50:50;;;;;;;;;;;;;;;21.69;32.28;97206.94;4882492;29;1091;-77
2022/06/12 12:53:19;;;;;;;;;;;;;;;21.81;32.41;97208.88;4942280;29;1014;-77
2022/06/12 12:55:44;;;;;;;;;;;;;;;21.90;32.25;97210.16;4942292;29;1029;-77
2022/06/12 12:58:20;;;;;;;;;;;;;;;22.00;31.99;97214.63;4923011;29;1202;-77
2022/06/12 13:00:45;;;;;;;;;;;;;;;21.88;32.48;97218.34;4885395;29;949;-77
2022/06/12 13:03:12;;;;;;;;;;;;;;;21.75;32.80;97221.28;4885381;29;1043;-77
2022/06/12 13:05:45;;;;;;;;;;;;;;;21.95;32.47;97229.38;4866601;29;990;-77
2022/06/12 13:08:16;;;;;;;;;;;;;;;21.95;32.43;97226.56;4866598;29;1896;-77
2022/06/12 13:11:00;;;;;;;;;;;;;;;21.79;32.52;97219.88;4870933;29;1029;-77
2022/06/12 13:13:44;;;;;;;;;;;;;;;21.85;32.34;97229.34;4869774;29;1037;-77
2022/06/12 13:16:30;;;;;;;;;;;;;;;21.99;32.44;97230.03;4866536;29;1064;-77
2022/06/12 13:19:05;;;;;;;;;;;;;;;22.02;32.28;97235.56;4878177;29;1077;-77
2022/06/12 13:21:36;;;;;;;;;;;;;;;21.74;32.93;97226.16;4904275;29;963;-77
2022/06/12 13:24:16;;;;;;;;;;;;;;;21.64;32.90;97238.69;4904158;29;1021;-77
2022/06/12 13:26:42;;;;;;;;;;;;;;;21.73;32.72;97229.44;4903898;29;934;-76
2022/06/12 13:29:20;;;;;;;;;;;;;;;21.80;32.76;97241.28;4903409;29;1895;-77
2022/06/12 13:31:52;;;;;;;;;;;;;;;21.93;32.88;97243.22;4922890;29;996;-77
2022/06/12 13:34:17;;;;;;;;;;;;;;;21.76;32.73;97239.84;4924075;29;1060;-77
2022/06/12 13:36:43;;;;;;;;;;;;;;;21.74;33.15;97242.34;4978624;28;1622;-77